Time;durP1;ratioP1;P1;durP2;ratioP2;P2;SDS_P1;SDS_P2;PMS_P1;PMS_P2;Temp;Humidity;BMP_temperature;BMP_pressure;BME280_temperature;BME280_humidity;BME280_pressure;Samples;Min_cycle;Max_cycle;Signal;HPM_P1;HPM_P2
2022/11/19 00:01:16;;;;;;;3.83;0.90;;;24.00;80.00;;;;;;5051139;28;20728;-85
2022/11/19 00:03:44;;;;;;;2.17;0.90;;;23.80;80.40;;;;;;5066517;28;20383;-91
2022/11/19 00:06:17;;;;;;;4.25;1.00;;;23.70;80.70;;;;;;5065306;28;20469;-85
2022/11/19 00:08:44;;;;;;;3.35;0.90;;;23.90;79.50;;;;;;5076919;28;20404;-89
2022/11/19 00:11:14;;;;;;;4.50;1.07;;;23.90;78.30;;;;;;5071221;28;20391;-86
2022/11/19 00:13:42;;;;;;;3.15;0.95;;;24.10;78.90;;;;;;5068568;28;20401;-87
2022/11/19 00:16:12;;;;;;;2.65;0.80;;;24.10;78.50;;;;;;5058489;28;20871;-89
2022/11/19 00:18:39;;;;;;;2.88;0.88;;;24.10;77.30;;;;;;5062743;28;20372;-89
2022/11/19 00:21:09;;;;;;;3.58;0.90;;;24.10;76.80;;;;;;5066244;28;20372;-88
2022/11/19 00:23:37;;;;;;;2.92;0.90;;;24.40;77.50;;;;;;5054611;28;20789;-86
2022/11/19 00:26:10;;;;;;;4.07;0.90;;;24.90;75.90;;;;;;5070593;28;20370;-88
2022/11/19 00:28:38;;;;;;;4.00;0.70;;;25.10;74.80;;;;;;5072571;28;20370;-90
2022/11/19 00:31:10;;;;;;;3.45;0.80;;;24.90;73.60;;;;;;5062923;28;20397;-86
2022/11/19 00:33:38;;;;;;;5.50;1.00;;;24.70;74.60;;;;;;5072464;28;20394;-87
2022/11/19 00:36:09;;;;;;;4.30;0.90;;;24.40;74.60;;;;;;5067965;28;20782;-86
2022/11/19 00:38:36;;;;;;;3.25;1.02;;;24.60;76.70;;;;;;5075692;28;20378;-89
2022/11/19 00:41:04;;;;;;;2.85;1.20;;;24.60;75.90;;;;;;5060542;28;20863;-85
2022/11/19 00:43:47;;;;;;;6.90;1.10;;;24.70;76.90;;;;;;5075786;28;20386;-91
2022/11/19 00:46:18;;;;;;;7.13;1.08;;;25.00;75.60;;;;;;5080606;28;20383;-91
2022/11/19 00:48:46;;;;;;;11.80;1.45;;;25.40;74.90;;;;;;5055423;28;20465;-88
2022/11/19 00:51:14;;;;;;;5.15;1.08;;;25.80;72.10;;;;;;5059008;28;20733;-91
2022/11/19 00:53:41;;;;;;;8.80;1.20;;;25.80;72.20;;;;;;5053494;28;20395;-87
2022/11/19 00:56:11;;;;;;;14.05;1.48;;;25.80;73.70;;;;;;5060668;28;20383;-89
2022/11/19 00:58:38;;;;;;;3.63;0.80;;;26.00;71.50;;;;;;5069397;28;20401;-87
2022/11/19 01:01:08;;;;;;;4.07;1.02;;;26.50;70.70;;;;;;5073806;28;20402;-88
2022/11/19 01:03:38;;;;;;;2.85;1.00;;;26.30;71.00;;;;;;5059487;28;20504;-86
2022/11/19 01:06:06;;;;;;;4.10;1.23;;;26.30;70.30;;;;;;5072159;28;20374;-87
2022/11/19 01:08:34;;;;;;;2.90;0.90;;;26.90;68.70;;;;;;5067283;28;20873;-87
2022/11/19 01:11:12;;;;;;;3.75;0.90;;;26.90;68.20;;;;;;5056155;28;20391;-86
2022/11/19 01:13:40;;;;;;;3.63;1.00;;;26.50;67.80;;;;;;5061281;28;20411;-89
2022/11/19 01:16:22;;;;;;;3.45;0.95;;;26.30;68.60;;;;;;5065594;28;20437;-87
2022/11/19 01:18:50;;;;;;;3.50;1.00;;;26.40;68.60;;;;;;5047694;28;20742;-87
2022/11/19 01:21:18;;;;;;;2.57;0.97;;;26.70;68.30;;;;;;5071851;28;20378;-83
2022/11/19 01:23:45;;;;;;;14.85;1.58;;;27.00;66.90;;;;;;5060852;28;20398;-87
2022/11/19 01:26:13;;;;;;;2.85;0.90;;;27.00;67.60;;;;;;5066665;28;20387;-85
2022/11/19 01:28:41;;;;;;;3.35;0.90;;;27.30;66.80;;;;;;5063543;28;20385;-87
2022/11/19 01:31:15;;;;;;;6.50;0.90;;;27.40;67.40;;;;;;5065403;28;20381;-86
2022/11/19 01:33:45;;;;;;;2.47;0.90;;;27.90;64.60;;;;;;5049709;28;20467;-87
2022/11/19 01:36:19;;;;;;;3.22;1.00;;;27.90;65.90;;;;;;5069564;28;20878;-89
2022/11/19 01:38:53;;;;;;;4.17;1.00;;;28.20;64.50;;;;;;5061543;28;20446;-90
2022/11/19 01:41:32;;;;;;;4.72;1.05;;;28.40;63.80;;;;;;5068647;28;20806;-87
2022/11/19 01:44:00;;;;;;;5.22;0.93;;;28.60;60.40;;;;;;5069218;28;20963;-88
2022/11/19 01:46:38;;;;;;;10.32;1.20;;;28.70;60.80;;;;;;5057731;28;20381;-88
2022/11/19 01:49:11;;;;;;;2.83;0.90;;;28.90;58.50;;;;;;5061808;28;20792;-87
2022/11/19 01:51:43;;;;;;;3.13;0.90;;;29.30;58.90;;;;;;5054064;28;20754;-85
2022/11/19 01:54:24;;;;;;;3.70;1.00;;;29.50;58.50;;;;;;5058039;28;20400;-83
2022/11/19 01:56:53;;;;;;;4.25;1.00;;;29.50;57.10;;;;;;5060234;28;20412;-85
2022/11/19 01:59:21;;;;;;;3.53;0.88;;;29.30;57.70;;;;;;5063526;28;20385;-85
2022/11/19 02:01:48;;;;;;;2.20;0.73;;;29.50;57.60;;;;;;5075187;28;20936;-87
2022/11/19 02:04:17;;;;;;;1.85;0.90;;;30.00;55.50;;;;;;5071368;28;20863;-87
2022/11/19 02:06:45;;;;;;;2.30;0.82;;;30.10;55.50;;;;;;5066933;28;20397;-88
2022/11/19 02:09:12;;;;;;;2.85;0.90;;;30.40;55.80;;;;;;5052011;28;20394;-86
2022/11/19 02:11:57;;;;;;;3.20;0.80;;;31.10;55.60;;;;;;5067766;28;20386;-88
2022/11/19 02:14:53;;;;;;;3.17;0.90;;;31.50;52.70;;;;;;5063879;28;20419;-81
2022/11/19 02:17:38;;;;;;;64.88;3.38;;;31.30;52.90;;;;;;5068483;28;20443;-83
2022/11/19 02:20:32;;;;;;;3.20;0.90;;;31.50;53.30;;;;;;5078567;28;20370;-85
2022/11/19 02:23:29;;;;;;;2.38;0.90;;;31.60;51.70;;;;;;5075801;28;20397;-84
2022/11/19 02:26:20;;;;;;;1.33;0.80;;;31.00;53.60;;;;;;5074089;28;20428;-85
2022/11/19 02:29:05;;;;;;;3.03;0.80;;;30.90;53.30;;;;;;5058000;28;20396;-86
2022/11/19 02:32:12;;;;;;;1.67;0.90;;;31.30;52.80;;;;;;5043081;28;20386;-83
2022/11/19 02:34:39;;;;;;;2.85;0.77;;;32.10;52.00;;;;;;4973405;28;20476;-82
2022/11/19 02:37:14;;;;;;;3.72;0.90;;;32.10;50.80;;;;;;4972643;28;21649;-84
2022/11/19 02:39:46;;;;;;;2.13;0.80;;;31.80;50.00;;;;;;4972545;28;20636;-82
2022/11/19 02:42:24;;;;;;;2.88;0.80;;;31.80;51.50;;;;;;4971640;28;20398;-84
2022/11/19 02:44:57;;;;;;;4.10;0.93;;;32.50;51.40;;;;;;4971099;28;20823;-83
2022/11/19 02:47:53;;;;;;;2.55;0.80;;;33.20;49.90;;;;;;4970340;28;20470;-82
2022/11/19 02:50:29;;;;;;;2.28;0.95;;;33.70;49.40;;;;;;4971266;28;20402;-90
2022/11/19 02:52:57;;;;;;;3.60;1.35;;;33.90;47.80;;;;;;4970683;28;20682;-86
2022/11/19 02:55:24;;;;;;;4.25;1.25;;;33.70;48.50;;;;;;4969944;28;20387;-86
2022/11/19 02:58:04;;;;;;;4.38;1.10;;;33.30;48.70;;;;;;4969083;28;20408;-86
2022/11/19 03:06:40;;;;;;;3.45;0.80;;;34.20;48.30;;;;;;4992556;28;20988;-84
2022/11/19 03:09:07;;;;;;;1.90;0.90;;;34.50;45.40;;;;;;4992163;28;20396;-88
2022/11/19 03:11:34;;;;;;;1.95;0.65;;;33.70;47.60;;;;;;4992447;28;20400;-86
2022/11/19 03:17:20;;;;;;;3.30;1.00;;;33.70;47.60;;;;;;4991283;28;20428;-81
2022/11/19 03:19:56;;;;;;;3.03;0.90;;;34.30;47.10;;;;;;4992091;28;20412;-80
2022/11/19 03:22:46;;;;;;;3.08;0.90;;;34.10;46.90;;;;;;4977688;28;20969;-80
2022/11/19 03:25:22;;;;;;;1.92;0.80;;;33.60;48.10;;;;;;4983167;28;20377;-81
2022/11/19 03:27:53;;;;;;;1.90;0.80;;;34.10;45.60;;;;;;4987104;28;20397;-88
2022/11/19 03:30:20;;;;;;;2.07;0.80;;;34.40;46.30;;;;;;4992426;28;20835;-87
2022/11/19 03:32:51;;;;;;;2.87;1.00;;;34.90;45.70;;;;;;4991962;28;20488;-87
2022/11/19 03:35:31;;;;;;;1.38;0.73;;;35.30;45.30;;;;;;4988389;28;20390;-90
2022/11/19 03:38:03;;;;;;;2.07;0.80;;;35.80;44.50;;;;;;5026986;28;20400;-89
2022/11/19 03:40:32;;;;;;;4.22;0.80;;;36.20;44.00;;;;;;5074164;28;20409;-89
2022/11/19 03:43:04;;;;;;;7.43;2.25;;;36.70;43.10;;;;;;5055520;28;20750;-88
2022/11/19 03:45:40;;;;;;;3.17;1.10;;;36.90;45.60;;;;;;5064945;28;20375;-91
2022/11/19 03:48:07;;;;;;;2.25;0.90;;;36.30;44.20;;;;;;5059713;28;20398;-85
2022/11/19 03:50:55;;;;;;;2.85;0.90;;;36.00;44.00;;;;;;5073133;28;20374;-86
2022/11/19 03:53:23;;;;;;;1.85;0.80;;;35.80;43.90;;;;;;5072949;28;20904;-86
2022/11/19 03:56:06;;;;;;;1.42;0.80;;;35.50;45.70;;;;;;5064172;28;20457;-91
2022/11/19 03:58:42;;;;;;;2.30;0.80;;;36.00;44.70;;;;;;5067089;28;20392;-86
2022/11/19 04:01:10;;;;;;;2.05;0.90;;;36.20;43.20;;;;;;5047927;28;20861;-86
2022/11/19 04:03:37;;;;;;;3.42;1.08;;;36.20;42.90;;;;;;5062212;28;20380;-85
2022/11/19 04:06:05;;;;;;;3.92;1.40;;;36.10;42.30;;;;;;5064023;28;20896;-86
2022/11/19 04:08:33;;;;;;;1.88;0.85;;;36.30;44.30;;;;;;5070297;28;20390;-85
2022/11/19 04:11:00;;;;;;;2.70;0.80;;;36.60;43.70;;;;;;5068039;28;20422;-83
2022/11/19 04:13:29;;;;;;;2.72;1.05;;;36.40;43.70;;;;;;5050478;28;20445;-84
2022/11/19 04:15:56;;;;;;;1.63;0.80;;;35.40;44.00;;;;;;5055091;28;20374;-85
2022/11/19 04:18:23;;;;;;;2.33;0.70;;;35.10;43.70;;;;;;5058438;28;20434;-84
2022/11/19 04:20:50;;;;;;;2.08;0.70;;;35.30;44.10;;;;;;5069505;28;20467;-86
2022/11/19 04:23:17;;;;;;;1.98;0.90;;;35.20;43.00;;;;;;5061644;28;20386;-89
2022/11/19 04:25:47;;;;;;;2.08;0.75;;;35.30;44.50;;;;;;5054478;28;20375;-87
2022/11/19 04:28:14;;;;;;;1.77;0.63;;;35.10;42.50;;;;;;5064550;28;20382;-84
2022/11/19 04:30:41;;;;;;;1.52;0.70;;;34.80;43.60;;;;;;5069018;28;20419;-83
2022/11/19 04:33:08;;;;;;;2.20;0.60;;;34.70;44.10;;;;;;5072298;28;20496;-86
2022/11/19 04:35:35;;;;;;;1.60;0.70;;;34.40;43.20;;;;;;5069547;28;20370;-84
2022/11/19 04:38:02;;;;;;;2.13;0.63;;;33.80;44.10;;;;;;5071724;28;20389;-84
2022/11/19 04:40:30;;;;;;;3.00;0.70;;;33.60;44.40;;;;;;5065391;28;20381;-84
2022/11/19 04:42:57;;;;;;;1.70;0.77;;;33.40;44.80;;;;;;5072146;28;20485;-83
2022/11/19 04:45:24;;;;;;;1.67;0.80;;;33.10;44.70;;;;;;5072297;28;20377;-83
2022/11/19 04:47:51;;;;;;;2.87;0.93;;;32.60;44.80;;;;;;5059131;28;20395;-85
2022/11/19 04:50:17;;;;;;;2.60;1.00;;;32.30;44.80;;;;;;5072377;28;20469;-86
2022/11/19 04:52:44;;;;;;;2.28;0.70;;;31.90;46.10;;;;;;5058619;28;20399;-85
2022/11/19 04:55:11;;;;;;;1.73;0.67;;;31.80;46.30;;;;;;5065587;28;21081;-86
2022/11/19 04:57:38;;;;;;;2.92;0.70;;;31.60;47.00;;;;;;5056386;28;20400;-85
2022/11/19 05:00:06;;;;;;;2.85;1.10;;;31.90;47.70;;;;;;5069382;28;20928;-86
2022/11/19 05:02:33;;;;;;;4.15;1.20;;;31.90;47.60;;;;;;5054010;28;20395;-88
2022/11/19 05:05:00;;;;;;;3.97;1.25;;;31.70;48.40;;;;;;5049817;28;20794;-87
2022/11/19 05:07:27;;;;;;;4.70;1.40;;;32.20;49.50;;;;;;5067559;28;20393;-87
2022/11/19 05:09:54;;;;;;;2.90;1.00;;;32.90;50.50;;;;;;5071583;28;20386;-86
2022/11/19 05:12:21;;;;;;;3.85;1.20;;;33.10;49.10;;;;;;5063664;28;20398;-88
2022/11/19 05:14:48;;;;;;;5.07;1.23;;;33.60;50.90;;;;;;5066980;28;20438;-86
2022/11/19 05:17:15;;;;;;;5.05;1.30;;;34.00;50.00;;;;;;5070567;28;20488;-87
2022/11/19 05:19:42;;;;;;;4.40;1.30;;;34.30;49.80;;;;;;5054037;28;20452;-87
2022/11/19 05:22:09;;;;;;;4.13;1.35;;;34.80;49.40;;;;;;5053597;28;20475;-86
2022/11/19 05:24:36;;;;;;;5.47;1.45;;;35.20;50.40;;;;;;5070990;28;20406;-86
2022/11/19 05:27:03;;;;;;;4.28;1.40;;;35.40;48.80;;;;;;5060028;28;20396;-87
2022/11/19 05:29:30;;;;;;;4.90;1.40;;;35.30;49.70;;;;;;5070116;28;20457;-89
2022/11/19 05:31:57;;;;;;;5.80;1.53;;;35.10;49.70;;;;;;5071328;28;20784;-86
2022/11/19 05:34:24;;;;;;;10.20;2.90;;;35.20;50.30;;;;;;5064107;28;20395;-87
2022/11/19 05:36:51;;;;;;;6.57;1.77;;;35.50;49.00;;;;;;5066704;28;20769;-86
2022/11/19 05:39:18;;;;;;;5.35;1.70;;;35.90;48.90;;;;;;5070731;28;20401;-85
2022/11/19 05:41:45;;;;;;;4.63;1.80;;;35.90;48.20;;;;;;5066397;28;20380;-87
2022/11/19 05:44:12;;;;;;;4.77;1.40;;;35.40;49.30;;;;;;5055530;28;20391;-88
2022/11/19 05:46:39;;;;;;;4.18;1.30;;;35.00;48.80;;;;;;5060352;28;20387;-87
2022/11/19 05:49:06;;;;;;;7.45;1.58;;;34.30;50.00;;;;;;5051179;28;20724;-88
2022/11/19 05:51:33;;;;;;;7.03;1.80;;;33.10;51.20;;;;;;5069350;28;21292;-90
2022/11/19 05:54:00;;;;;;;5.53;1.60;;;31.90;54.00;;;;;;5071891;28;20465;-87
2022/11/19 05:56:28;;;;;;;6.50;1.63;;;30.80;55.30;;;;;;5070582;28;20398;-85
2022/11/19 05:58:55;;;;;;;5.32;1.65;;;30.00;57.60;;;;;;5070805;28;20579;-85
2022/11/19 06:01:26;;;;;;;4.22;1.52;;;29.30;59.00;;;;;;5070539;28;20877;-88
2022/11/19 06:03:53;;;;;;;5.47;1.60;;;28.80;60.60;;;;;;5068324;28;20386;-85
2022/11/19 06:06:20;;;;;;;7.60;1.70;;;28.50;62.70;;;;;;5050739;28;20392;-88
2022/11/19 06:08:48;;;;;;;6.45;1.77;;;28.20;62.30;;;;;;5063673;28;20389;-86
2022/11/19 06:14:01;;;;;;;5.45;1.80;;;27.70;63.50;;;;;;5043712;28;20383;-88
2022/11/19 06:16:28;;;;;;;8.68;1.80;;;27.50;64.70;;;;;;5066233;28;21078;-91
2022/11/19 06:18:55;;;;;;;10.15;1.60;;;27.30;64.70;;;;;;5070610;28;20389;-84
2022/11/19 06:21:22;;;;;;;6.33;1.80;;;27.20;65.20;;;;;;5063222;28;20383;-88
2022/11/19 06:23:49;;;;;;;5.10;1.90;;;27.00;65.70;;;;;;5051675;28;20464;-85
2022/11/19 06:26:27;;;;;;;6.50;1.50;;;26.90;65.90;;;;;;5052094;28;20394;-82
2022/11/19 06:28:55;;;;;;;7.90;1.70;;;26.90;66.60;;;;;;5049888;28;20390;-86
2022/11/19 06:31:23;;;;;;;5.32;1.40;;;27.00;67.90;;;;;;5056676;28;20759;-86
2022/11/19 06:33:52;;;;;;;6.73;1.63;;;28.10;66.20;;;;;;5054823;28;20886;-86
2022/11/19 06:36:19;;;;;;;6.50;1.60;;;29.50;63.00;;;;;;5059369;28;20395;-85
2022/11/19 06:38:46;;;;;;;5.03;1.45;;;30.80;60.00;;;;;;5048552;28;20391;-88
2022/11/19 06:41:13;;;;;;;4.97;1.70;;;31.70;57.50;;;;;;5044207;28;20416;-84
2022/11/19 06:43:41;;;;;;;6.80;2.30;;;32.20;56.80;;;;;;5047049;28;20879;-84
2022/11/19 06:46:12;;;;;;;5.97;3.55;;;32.40;55.80;;;;;;5057665;28;20882;-85
2022/11/19 06:48:39;;;;;;;8.80;3.70;;;32.40;55.90;;;;;;5045807;28;20414;-89
2022/11/19 06:51:07;;;;;;;6.45;2.10;;;31.90;55.30;;;;;;5057395;28;20364;-86
2022/11/19 06:53:34;;;;;;;8.07;2.10;;;31.20;56.40;;;;;;5057345;28;20432;-88
2022/11/19 06:56:04;;;;;;;5.40;1.67;;;30.60;57.20;;;;;;5057766;28;20441;-88
2022/11/19 06:58:31;;;;;;;6.55;1.80;;;30.20;58.70;;;;;;5057907;28;20395;-84
2022/11/19 07:01:00;;;;;;;5.55;1.83;;;30.10;58.40;;;;;;5058315;28;20398;-93
2022/11/19 07:03:27;;;;;;;6.57;1.63;;;30.00;59.00;;;;;;5019096;28;20381;-83
2022/11/19 07:05:59;;;;;;;4.70;1.70;;;30.20;59.40;;;;;;5002595;28;20397;-85
2022/11/19 07:08:26;;;;;;;6.50;1.73;;;30.50;59.10;;;;;;5006120;28;20904;-85
2022/11/19 07:10:55;;;;;;;5.55;2.00;;;30.10;59.50;;;;;;5010605;28;20427;-89
2022/11/19 07:13:22;;;;;;;6.20;1.85;;;29.70;59.40;;;;;;5013508;28;20414;-87
2022/11/19 07:15:49;;;;;;;6.83;1.80;;;29.50;60.60;;;;;;5015481;28;20392;-94
2022/11/19 07:18:16;;;;;;;7.70;2.20;;;29.40;60.90;;;;;;5017432;28;20383;-91
2022/11/19 07:20:45;;;;;;;6.97;1.80;;;28.80;61.00;;;;;;5016505;28;20379;-84
2022/11/19 07:23:12;;;;;;;6.22;2.00;;;28.20;63.10;;;;;;5004489;28;20985;-91
2022/11/19 07:25:39;;;;;;;5.45;1.77;;;27.50;64.50;;;;;;5023181;28;20493;-86
2022/11/19 07:28:07;;;;;;;7.18;1.92;;;26.90;66.00;;;;;;5025006;28;20389;-83
2022/11/19 07:30:34;;;;;;;7.93;1.70;;;26.60;67.30;;;;;;5031213;28;20464;-83
2022/11/19 07:33:02;;;;;;;7.30;2.10;;;26.30;68.30;;;;;;5032882;28;20418;-84
2022/11/19 07:35:30;;;;;;;7.20;1.80;;;26.10;69.20;;;;;;5036289;28;20375;-84
2022/11/19 07:37:57;;;;;;;7.25;1.95;;;25.90;69.90;;;;;;5033469;28;20391;-88
2022/11/19 07:40:24;;;;;;;6.05;1.90;;;25.50;70.40;;;;;;5032796;28;20399;-83
2022/11/19 07:42:52;;;;;;;6.22;1.80;;;25.40;71.60;;;;;;5061157;28;20478;-92
2022/11/19 07:45:21;;;;;;;8.60;2.10;;;25.30;71.90;;;;;;5059462;28;20372;-88
2022/11/19 07:47:48;;;;;;;8.43;2.10;;;25.20;72.80;;;;;;5055945;28;20392;-91
2022/11/19 07:50:16;;;;;;;8.38;2.00;;;25.00;73.00;;;;;;5055609;28;20382;-91
2022/11/19 07:52:43;;;;;;;9.20;2.28;;;24.90;73.90;;;;;;5055165;28;20409;-92
2022/11/19 07:55:10;;;;;;;6.45;2.10;;;24.80;74.30;;;;;;5055112;28;20367;-91
2022/11/19 07:57:37;;;;;;;10.68;2.33;;;24.70;75.10;;;;;;5054843;28;20411;-90
2022/11/19 08:00:05;;;;;;;10.13;2.30;;;24.50;76.10;;;;;;5054864;28;20954;-90
2022/11/19 08:02:32;;;;;;;9.48;2.50;;;24.50;76.90;;;;;;5056329;28;20446;-91
2022/11/19 08:04:59;;;;;;;6.72;2.20;;;24.40;77.60;;;;;;5055997;28;20375;-93
2022/11/19 08:07:26;;;;;;;9.40;2.17;;;24.40;78.20;;;;;;5054816;28;20372;-92
2022/11/19 08:09:58;;;;;;;9.23;2.37;;;24.30;79.00;;;;;;5059735;28;20399;-87
2022/11/19 08:12:38;;;;;;;9.85;2.50;;;24.20;80.20;;;;;;5070844;28;20400;-88
2022/11/19 08:15:05;;;;;;;8.93;2.40;;;24.00;82.10;;;;;;5040746;28;20376;-91
2022/11/19 08:20:18;;;;;;;9.77;3.00;;;23.90;85.00;;;;;;5054233;28;20371;-89
2022/11/19 08:22:45;;;;;;;9.77;2.80;;;23.80;86.90;;;;;;5071578;28;20389;-89
2022/11/19 08:25:12;;;;;;;8.85;2.67;;;23.80;88.40;;;;;;5073118;28;20382;-90
2022/11/19 08:27:39;;;;;;;9.53;2.47;;;23.80;89.60;;;;;;5072935;28;20386;-91
2022/11/19 08:30:07;;;;;;;9.27;2.60;;;23.80;90.10;;;;;;5055114;28;20385;-90
2022/11/19 08:32:36;;;;;;;12.07;2.75;;;23.80;90.40;;;;;;5072596;28;20402;-90
2022/11/19 08:35:03;;;;;;;11.32;2.33;;;23.70;91.40;;;;;;5066600;28;20430;-91
2022/11/19 08:37:31;;;;;;;9.70;2.50;;;23.70;91.80;;;;;;5068105;28;20441;-89
2022/11/19 08:39:58;;;;;;;8.80;2.50;;;23.60;92.10;;;;;;5039883;28;20386;-90
2022/11/19 08:45:13;;;;;;;11.65;2.80;;;23.60;93.40;;;;;;5073484;28;20400;-90
2022/11/19 08:47:40;;;;;;;10.45;2.90;;;23.50;93.90;;;;;;5073295;28;20428;-88
2022/11/19 08:50:07;;;;;;;9.88;2.58;;;23.40;94.40;;;;;;5072956;28;20414;-88
2022/11/19 08:52:36;;;;;;;13.02;2.63;;;23.30;95.10;;;;;;5075088;28;20386;-90
2022/11/19 08:55:03;;;;;;;10.47;2.40;;;23.20;95.70;;;;;;5062261;28;20398;-89
2022/11/19 08:57:30;;;;;;;8.30;2.55;;;23.10;96.20;;;;;;5063402;28;20483;-88
2022/11/19 08:59:57;;;;;;;10.60;2.80;;;23.10;96.40;;;;;;5054520;28;20895;-90
2022/11/19 09:02:24;;;;;;;12.10;2.75;;;22.90;96.90;;;;;;5063933;28;21239;-89
2022/11/19 09:04:51;;;;;;;10.33;2.97;;;22.80;97.20;;;;;;5077172;28;20374;-89
2022/11/19 09:07:18;;;;;;;11.48;2.78;;;22.80;98.10;;;;;;5079984;28;20402;-88
2022/11/19 09:09:46;;;;;;;9.55;2.63;;;22.70;98.50;;;;;;5079638;28;20711;-88
2022/11/19 09:12:13;;;;;;;9.88;2.72;;;22.60;98.90;;;;;;5065213;28;20390;-89
2022/11/19 09:14:40;;;;;;;8.87;2.43;;;22.50;99.20;;;;;;5065712;28;21324;-90
2022/11/19 09:17:07;;;;;;;9.27;2.67;;;22.40;99.60;;;;;;5073495;28;20411;-92
2022/11/19 09:19:34;;;;;;;12.23;2.83;;;22.40;99.90;;;;;;5077161;28;20466;-92
2022/11/19 09:22:01;;;;;;;12.05;2.85;;;22.30;99.90;;;;;;5074040;28;20370;-90
2022/11/19 09:24:28;;;;;;;12.70;2.85;;;22.20;99.90;;;;;;5055214;28;20889;-89
2022/11/19 09:26:55;;;;;;;8.60;2.78;;;22.20;99.90;;;;;;5074663;28;20393;-88
2022/11/19 09:29:22;;;;;;;9.00;2.85;;;22.20;99.90;;;;;;5074588;28;20370;-88
2022/11/19 09:31:49;;;;;;;9.55;3.00;;;22.20;99.90;;;;;;5074206;28;20374;-89
2022/11/19 09:34:16;;;;;;;8.27;2.90;;;22.20;99.90;;;;;;5072490;28;20389;-91
2022/11/19 09:36:43;;;;;;;10.85;3.20;;;22.20;99.90;;;;;;5037153;28;20815;-88
2022/11/19 09:39:10;;;;;;;9.18;2.72;;;22.20;99.90;;;;;;5039614;28;20423;-90
2022/11/19 09:42:15;;;;;;;10.95;2.92;;;22.30;99.90;;;;;;5042277;28;20390;-89
2022/11/19 09:44:48;;;;;;;10.60;2.92;;;22.30;99.90;;;;;;5047101;28;20386;-88
2022/11/19 09:47:34;;;;;;;11.80;2.80;;;22.20;99.90;;;;;;5079121;28;20370;-88
2022/11/19 09:50:13;;;;;;;11.35;3.22;;;22.20;99.90;;;;;;5051271;28;20476;-92
2022/11/19 09:52:49;;;;;;;8.00;2.90;;;22.20;99.90;;;;;;5065292;28;20413;-89
2022/11/19 09:55:37;;;;;;;12.87;3.20;;;22.30;99.90;;;;;;5067472;28;20356;-91
2022/11/19 09:58:11;;;;;;;9.05;2.83;;;22.30;99.90;;;;;;5050431;28;20936;-89
2022/11/19 10:00:38;;;;;;;7.60;2.90;;;22.20;99.90;;;;;;5073168;28;20393;-89
2022/11/19 10:03:16;;;;;;;9.88;3.35;;;22.20;99.90;;;;;;5073503;28;20410;-89
2022/11/19 10:06:07;;;;;;;9.23;3.17;;;22.20;99.90;;;;;;5072720;28;20436;-92
2022/11/19 10:08:58;;;;;;;13.95;3.65;;;22.10;99.90;;;;;;5071519;28;20796;-87
2022/11/19 10:11:34;;;;;;;13.30;3.28;;;22.10;99.90;;;;;;5059102;28;20379;-90
2022/11/19 10:14:09;;;;;;;10.43;3.65;;;22.00;99.90;;;;;;5044052;28;20479;-90
2022/11/19 10:16:57;;;;;;;13.82;3.90;;;21.90;99.90;;;;;;5072828;28;20564;-90
2022/11/19 10:19:50;;;;;;;12.35;3.53;;;21.80;99.90;;;;;;5023537;28;20883;-89
2022/11/19 10:22:45;;;;;;;8.93;3.00;;;21.70;99.90;;;;;;5070354;28;20880;-90
2022/11/19 10:25:21;;;;;;;12.73;3.35;;;21.60;99.90;;;;;;5062786;28;20443;-88
2022/11/19 10:27:50;;;;;;;12.23;3.50;;;21.50;99.90;;;;;;5040023;28;20465;-88
2022/11/19 10:30:28;;;;;;;12.43;3.40;;;21.40;99.90;;;;;;5054198;28;20386;-91
2022/11/19 10:32:59;;;;;;;12.77;2.78;;;21.40;99.90;;;;;;5069119;28;20534;-88
2022/11/19 10:35:35;;;;;;;9.35;2.90;;;21.40;99.90;;;;;;5045495;28;20952;-90
2022/11/19 10:38:13;;;;;;;10.93;2.60;;;21.30;99.90;;;;;;5053878;28;20386;-89
2022/11/19 10:40:44;;;;;;;10.20;2.47;;;21.30;99.90;;;;;;5064229;28;20420;-91
2022/11/19 10:43:33;;;;;;;8.90;2.60;;;21.40;99.90;;;;;;5061152;28;20362;-92
2022/11/19 10:46:04;;;;;;;9.13;2.30;;;21.40;99.90;;;;;;5052472;28;20384;-89
2022/11/19 10:48:43;;;;;;;8.18;2.35;;;21.60;99.90;;;;;;5055613;28;20407;-87
2022/11/19 10:51:34;;;;;;;6.32;2.10;;;21.80;99.90;;;;;;5052191;28;20956;-89
2022/11/19 10:54:06;;;;;;;11.90;4.07;;;22.00;99.90;;;;;;5065855;28;20431;-89
2022/11/19 10:56:38;;;;;;;13.50;4.30;;;22.20;99.90;;;;;;5068129;28;20409;-89
2022/11/19 10:59:20;;;;;;;7.80;3.42;;;22.20;99.90;;;;;;5038167;28;20899;-88
2022/11/19 11:01:59;;;;;;;10.63;3.47;;;22.30;99.90;;;;;;5066302;28;20386;-86
2022/11/19 11:04:29;;;;;;;9.50;3.08;;;22.20;99.90;;;;;;5067149;28;20378;-91
2022/11/19 11:07:01;;;;;;;10.37;2.80;;;22.20;99.90;;;;;;5061418;28;20387;-87
2022/11/19 11:09:42;;;;;;;7.95;2.50;;;22.20;99.90;;;;;;5049574;28;20360;-88
2022/11/19 11:15:16;;;;;;;8.48;2.53;;;22.20;99.90;;;;;;5053367;28;20403;-91
2022/11/19 11:17:45;;;;;;;9.35;2.67;;;22.30;99.90;;;;;;5050989;28;20382;-90
2022/11/19 11:20:19;;;;;;;8.57;2.42;;;22.30;99.90;;;;;;5067628;28;20382;-87
2022/11/19 11:23:00;;;;;;;7.68;2.33;;;22.20;99.90;;;;;;5055349;28;20384;-89
2022/11/19 11:25:29;;;;;;;8.43;2.42;;;22.20;99.90;;;;;;5067040;28;20412;-89
2022/11/19 11:28:20;;;;;;;9.93;2.45;;;22.30;99.90;;;;;;5073403;28;20382;-87
2022/11/19 11:30:57;;;;;;;8.75;2.50;;;22.20;99.90;;;;;;5058304;28;20437;-88
2022/11/19 11:33:27;;;;;;;8.45;2.30;;;22.10;99.90;;;;;;5066580;28;20435;-88
2022/11/19 11:35:58;;;;;;;8.05;2.47;;;22.10;99.90;;;;;;5058839;28;20497;-90
2022/11/19 11:38:27;;;;;;;7.32;2.20;;;21.90;99.90;;;;;;5060092;28;20383;-90
2022/11/19 11:41:12;;;;;;;8.20;2.30;;;21.90;99.90;;;;;;5066571;28;20395;-90
2022/11/19 11:44:00;;;;;;;10.57;2.40;;;21.80;99.90;;;;;;5058052;28;20404;-90
2022/11/19 11:46:40;;;;;;;10.27;2.40;;;21.80;99.90;;;;;;5068608;28;20378;-88
2022/11/19 11:49:20;;;;;;;9.35;2.30;;;21.90;99.90;;;;;;5043196;28;20379;-91
2022/11/19 11:51:54;;;;;;;7.35;2.08;;;21.90;99.90;;;;;;5052786;28;20375;-90
2022/11/19 11:54:22;;;;;;;6.83;1.97;;;21.90;99.90;;;;;;5056125;28;20383;-88
2022/11/19 11:56:49;;;;;;;8.57;2.20;;;21.70;99.90;;;;;;5052528;28;20394;-93
2022/11/19 11:59:36;;;;;;;10.57;2.83;;;21.60;99.90;;;;;;5059466;28;20862;-89
2022/11/19 12:02:07;;;;;;;9.15;2.40;;;21.50;99.90;;;;;;5063873;28;20387;-87
2022/11/19 12:04:35;;;;;;;8.15;2.20;;;21.40;99.90;;;;;;5069352;28;20454;-87
2022/11/19 12:07:11;;;;;;;8.32;2.50;;;21.40;99.90;;;;;;5046374;28;20379;-89
2022/11/19 12:09:50;;;;;;;9.88;2.75;;;21.40;99.90;;;;;;5065958;28;20390;-86
2022/11/19 12:12:30;;;;;;;10.07;2.90;;;21.30;99.90;;;;;;5073560;28;20450;-87
2022/11/19 12:15:09;;;;;;;9.68;3.22;;;21.30;99.90;;;;;;5067283;28;20380;-88
2022/11/19 12:17:45;;;;;;;11.35;3.30;;;21.20;99.90;;;;;;5066873;28;20366;-87
2022/11/19 12:20:33;;;;;;;13.90;3.50;;;21.00;99.90;;;;;;5073567;28;20363;-90
2022/11/19 12:23:24;;;;;;;9.60;3.25;;;20.90;99.90;;;;;;5060079;28;20479;-88
2022/11/19 12:26:22;;;;;;;15.32;3.88;;;20.70;99.90;;;;;;5066082;28;20386;-86
2022/11/19 12:29:12;;;;;;;10.93;3.53;;;20.40;99.90;;;;;;5057817;28;20443;-87
2022/11/19 12:31:39;;;;;;;9.73;3.53;;;20.10;99.90;;;;;;4989058;28;20393;-88
2022/11/19 12:34:31;;;;;;;11.55;3.45;;;20.00;99.90;;;;;;4984536;28;20444;-88
2022/11/19 12:37:14;;;;;;;13.65;3.83;;;19.90;99.90;;;;;;4983253;28;20377;-89
2022/11/19 12:39:54;;;;;;;11.38;3.65;;;19.60;99.90;;;;;;4956826;28;20389;-88
2022/11/19 12:42:33;;;;;;;11.88;3.80;;;19.40;99.90;;;;;;4991925;28;20384;-88
2022/11/19 12:45:14;;;;;;;13.55;3.65;;;19.40;99.90;;;;;;4983012;28;20402;-87
2022/11/19 12:48:25;;;;;;;15.30;4.00;;;19.40;99.90;;;;;;4990481;28;20397;-88
2022/11/19 12:51:06;;;;;;;14.95;3.63;;;19.40;99.90;;;;;;4975645;28;20373;-89
2022/11/19 12:53:48;;;;;;;12.50;3.88;;;19.30;99.90;;;;;;4984723;28;20419;-88
2022/11/19 12:56:41;;;;;;;10.40;3.70;;;19.30;99.90;;;;;;4993344;28;20397;-88
2022/11/19 12:59:44;;;;;;;16.23;4.05;;;19.30;99.90;;;;;;4965919;28;20733;-88
2022/11/19 13:02:24;;;;;;;15.30;4.00;;;19.30;99.90;;;;;;4991734;28;20471;-90
2022/11/19 13:05:01;;;;;;;12.95;3.80;;;19.30;99.90;;;;;;4992765;28;20388;-90
2022/11/19 13:07:58;;;;;;;14.05;4.72;;;19.20;99.90;;;;;;4975926;28;20393;-90
2022/11/19 13:10:33;;;;;;;12.25;4.25;;;19.20;99.90;;;;;;4962904;28;20393;-89
2022/11/19 13:13:03;;;;;;;12.65;4.57;;;19.10;99.90;;;;;;4989663;28;20842;-90
2022/11/19 13:15:45;;;;;;;12.10;4.35;;;19.10;99.90;;;;;;4974995;28;20402;-87
2022/11/19 13:18:17;;;;;;;11.20;4.30;;;19.10;99.90;;;;;;4994107;28;20388;-87
2022/11/19 13:21:09;;;;;;;12.25;4.60;;;19.10;99.90;;;;;;4997125;28;20373;-88
2022/11/19 13:23:47;;;;;;;11.00;4.28;;;19.10;99.90;;;;;;4869734;29;20401;-88
2022/11/19 13:26:29;;;;;;;9.75;4.07;;;19.00;99.90;;;;;;4867053;29;20439;-87
2022/11/19 13:29:06;;;;;;;14.47;3.83;;;18.90;99.90;;;;;;4883533;29;20383;-88
2022/11/19 13:31:46;;;;;;;13.40;4.00;;;18.90;99.90;;;;;;4872801;29;20409;-87
2022/11/19 13:34:33;;;;;;;9.38;3.70;;;18.80;99.90;;;;;;4866975;29;20433;-87